createdAt,value
2019-04-13T00:00:54.241Z,0.00
2019-04-13T00:01:54.203Z,0.00
2019-04-13T00:02:54.176Z,0.00
2019-04-13T00:03:54.151Z,0.00
2019-04-13T00:04:54.131Z,0.00
2019-04-13T00:05:54.100Z,0.00
2019-04-13T00:06:54.074Z,0.00
2019-04-13T00:07:54.048Z,0.00
2019-04-13T00:08:54.025Z,0.00
2019-04-13T00:09:53.998Z,0.00
2019-04-13T00:10:53.971Z,0.00
2019-04-13T00:11:53.953Z,0.00
2019-04-13T00:12:53.919Z,0.00
2019-04-13T00:13:53.895Z,0.00
2019-04-13T00:14:53.924Z,0.00
2019-04-13T00:15:53.844Z,0.00
2019-04-13T00:16:53.816Z,0.00
2019-04-13T00:17:53.791Z,0.00
2019-04-13T00:18:53.767Z,0.00
2019-04-13T00:19:53.741Z,0.00
2019-04-13T00:20:53.713Z,0.00
2019-04-13T00:21:53.688Z,0.00
2019-04-13T00:22:53.661Z,0.00
2019-04-13T00:23:53.637Z,0.00
2019-04-13T00:24:53.637Z,0.00
2019-04-13T00:25:53.588Z,0.00
2019-04-13T00:26:53.561Z,0.00
2019-04-13T00:27:53.578Z,0.00
2019-04-13T00:28:53.506Z,0.00
2019-04-13T00:29:53.523Z,0.00
2019-04-13T00:30:53.464Z,0.00
2019-04-13T00:31:53.433Z,0.00
2019-04-13T00:32:53.474Z,0.00
2019-04-13T00:33:53.381Z,0.00
2019-04-13T00:34:53.355Z,0.00
2019-04-13T00:35:53.341Z,0.00
2019-04-13T00:36:53.301Z,0.00
2019-04-13T00:37:53.278Z,0.00
2019-04-13T00:38:53.252Z,0.00
2019-04-13T00:39:53.227Z,0.00
2019-04-13T00:40:53.199Z,0.00
2019-04-13T00:41:53.173Z,0.00
2019-04-13T00:42:53.148Z,0.00
2019-04-13T00:43:53.120Z,0.00
2019-04-13T00:44:53.094Z,0.00
2019-04-13T00:45:53.068Z,0.00
2019-04-13T00:46:53.042Z,0.00
2019-04-13T00:47:53.018Z,0.00
2019-04-13T00:48:52.994Z,0.00
2019-04-13T00:49:52.966Z,0.00
2019-04-13T00:50:52.946Z,0.00
2019-04-13T00:51:52.918Z,0.00
2019-04-13T00:52:52.887Z,0.00
2019-04-13T00:53:52.870Z,0.00
2019-04-13T00:54:52.837Z,0.00
2019-04-13T00:55:52.811Z,0.00
2019-04-13T00:56:52.784Z,0.00
2019-04-13T00:57:52.817Z,0.00
2019-04-13T00:58:52.732Z,0.00
2019-04-13T00:59:52.707Z,0.00
2019-04-13T01:00:52.681Z,0.00
2019-04-13T01:01:52.654Z,0.00
2019-04-13T01:02:52.632Z,0.00
2019-04-13T01:03:52.698Z,0.00
2019-04-13T01:04:53.587Z,0.00
2019-04-13T01:05:52.559Z,0.00
2019-04-13T01:06:52.525Z,0.00
2019-04-13T01:07:52.501Z,0.00
2019-04-13T01:08:52.471Z,0.00
2019-04-13T01:09:52.448Z,0.00
2019-04-13T01:10:52.422Z,0.00
2019-04-13T01:11:52.398Z,0.00
2019-04-13T01:12:52.369Z,0.00
2019-04-13T01:13:52.344Z,0.00
2019-04-13T01:14:52.316Z,0.00
2019-04-13T01:15:52.292Z,0.00
2019-04-13T01:16:52.273Z,0.00
2019-04-13T01:17:52.247Z,0.00
2019-04-13T01:18:52.213Z,0.00
2019-04-13T01:19:52.190Z,0.00
2019-04-13T01:20:52.162Z,0.00
2019-04-13T01:21:52.133Z,0.00
2019-04-13T01:22:52.112Z,0.00
2019-04-13T01:23:52.083Z,0.00
2019-04-13T01:24:52.055Z,0.00
2019-04-13T01:25:52.031Z,0.00
2019-04-13T01:26:52.007Z,0.00
2019-04-13T01:27:51.979Z,0.00
2019-04-13T01:28:51.955Z,0.00
2019-04-13T01:29:51.929Z,0.00
2019-04-13T01:30:51.899Z,0.00
2019-04-13T01:31:51.874Z,0.00
2019-04-13T01:32:51.849Z,0.00
2019-04-13T01:33:51.824Z,0.00
2019-04-13T01:34:51.799Z,0.00
2019-04-13T01:35:51.776Z,0.00
2019-04-13T01:36:51.744Z,0.00
2019-04-13T01:37:51.719Z,0.00
2019-04-13T01:38:51.697Z,0.00
2019-04-13T01:39:51.663Z,0.00
2019-04-13T01:40:51.637Z,0.00
2019-04-13T01:41:51.612Z,0.00
2019-04-13T01:42:51.586Z,0.00
2019-04-13T01:43:51.558Z,0.00
2019-04-13T01:44:51.580Z,0.00
2019-04-13T01:45:51.580Z,0.00
2019-04-13T01:46:51.560Z,0.00
2019-04-13T01:47:51.454Z,0.00
2019-04-13T01:48:51.429Z,0.00
2019-04-13T01:49:51.400Z,0.00
2019-04-13T01:50:51.379Z,0.00
2019-04-13T01:51:51.349Z,0.00
2019-04-13T01:52:51.320Z,0.00
2019-04-13T01:53:51.300Z,0.00
2019-04-13T01:54:51.269Z,0.00
2019-04-13T01:55:51.246Z,0.00
2019-04-13T01:56:51.216Z,0.00
2019-04-13T01:57:51.192Z,0.00
2019-04-13T01:58:51.164Z,0.00
2019-04-13T01:59:51.135Z,0.00
2019-04-13T02:00:51.109Z,0.00
2019-04-13T02:01:51.083Z,0.00
2019-04-13T02:02:51.060Z,0.00
2019-04-13T02:03:51.031Z,0.00
2019-04-13T02:04:51.003Z,0.00
2019-04-13T02:05:50.980Z,0.00
2019-04-13T02:06:50.954Z,0.00
2019-04-13T02:07:50.930Z,0.00
2019-04-13T02:08:50.900Z,0.00
2019-04-13T02:09:50.870Z,0.00
2019-04-13T02:10:50.845Z,0.00
2019-04-13T02:11:50.819Z,0.00
2019-04-13T02:12:50.805Z,0.00
2019-04-13T02:13:50.764Z,0.00
2019-04-13T02:14:50.737Z,0.00
2019-04-13T02:15:50.719Z,0.00
2019-04-13T02:16:50.684Z,0.00
2019-04-13T02:17:50.659Z,0.00
2019-04-13T02:18:50.643Z,0.00
2019-04-13T02:19:50.606Z,0.00
2019-04-13T02:20:50.579Z,0.00
2019-04-13T02:21:50.552Z,0.00
2019-04-13T02:22:50.528Z,0.00
2019-04-13T02:23:50.500Z,0.00
2019-04-13T02:24:50.473Z,0.00
2019-04-13T02:25:50.446Z,0.00
2019-04-13T02:26:50.421Z,0.00
2019-04-13T02:27:50.396Z,0.00
2019-04-13T02:28:50.365Z,0.00
2019-04-13T02:29:50.343Z,0.00
2019-04-13T02:30:50.322Z,0.00
2019-04-13T02:31:50.288Z,0.00
2019-04-13T02:32:50.268Z,0.00
2019-04-13T02:33:50.243Z,0.00
2019-04-13T02:34:50.217Z,0.00
2019-04-13T02:35:50.186Z,0.00
2019-04-13T02:36:50.160Z,0.00
2019-04-13T02:37:50.137Z,0.00
2019-04-13T02:38:50.107Z,0.00
2019-04-13T02:39:50.078Z,0.00
2019-04-13T02:40:50.052Z,0.00
2019-04-13T02:41:50.080Z,0.00
2019-04-13T02:42:50.003Z,0.00
2019-04-13T02:43:49.971Z,0.00
2019-04-13T02:44:49.997Z,0.00
2019-04-13T02:45:49.915Z,0.00
2019-04-13T02:46:49.893Z,0.00
2019-04-13T02:47:49.864Z,0.00
2019-04-13T02:48:49.835Z,0.00
2019-04-13T02:49:49.812Z,0.00
2019-04-13T02:50:49.785Z,0.00
2019-04-13T02:51:49.760Z,0.00
2019-04-13T02:52:49.732Z,0.00
2019-04-13T02:53:49.705Z,0.00
2019-04-13T02:54:49.677Z,0.00
2019-04-13T02:55:49.653Z,0.00
2019-04-13T02:56:49.623Z,0.00
2019-04-13T02:57:49.597Z,0.00
2019-04-13T02:58:49.570Z,0.00
2019-04-13T02:59:49.543Z,0.00
2019-04-13T03:00:49.516Z,0.00
2019-04-13T03:01:49.492Z,0.00
2019-04-13T03:02:49.462Z,0.00
2019-04-13T03:03:49.435Z,0.00
2019-04-13T03:04:49.407Z,0.00
2019-04-13T03:05:49.390Z,0.00
2019-04-13T03:06:49.356Z,0.00
2019-04-13T03:07:49.333Z,0.00
2019-04-13T03:08:49.300Z,0.00
2019-04-13T03:09:49.275Z,0.00
2019-04-13T03:10:49.247Z,0.00
2019-04-13T03:11:49.222Z,0.00
2019-04-13T03:12:49.196Z,0.00
2019-04-13T03:13:49.166Z,0.00
2019-04-13T03:14:49.144Z,0.00
2019-04-13T03:15:49.116Z,0.00
2019-04-13T03:16:49.092Z,0.00
2019-04-13T03:17:49.063Z,0.00
2019-04-13T03:18:49.033Z,0.00
2019-04-13T03:19:49.006Z,0.00
2019-04-13T03:20:49.016Z,0.00
2019-04-13T03:21:48.954Z,0.00
2019-04-13T03:22:48.925Z,0.00
2019-04-13T03:23:48.899Z,0.00
2019-04-13T03:24:48.874Z,0.00
2019-04-13T03:25:48.847Z,0.00
2019-04-13T03:26:48.823Z,0.00
2019-04-13T03:27:48.793Z,0.00
2019-04-13T03:28:48.761Z,0.00
2019-04-13T03:29:48.745Z,0.00
2019-04-13T03:30:50.127Z,0.00
2019-04-13T03:31:48.701Z,0.00
2019-04-13T03:32:48.654Z,0.00
2019-04-13T03:33:48.625Z,0.00
2019-04-13T03:34:48.599Z,0.00
2019-04-13T03:35:58.791Z,0.00
2019-04-13T03:36:48.549Z,0.00
2019-04-13T03:37:48.526Z,0.00
2019-04-13T03:38:48.491Z,0.00
2019-04-13T03:39:48.464Z,0.00
2019-04-13T03:40:48.436Z,0.00
2019-04-13T03:41:48.410Z,0.00
2019-04-13T03:42:48.384Z,0.00
2019-04-13T03:43:48.387Z,0.00
2019-04-13T03:44:48.328Z,0.00
2019-04-13T03:45:48.301Z,0.00
2019-04-13T03:46:48.274Z,0.00
2019-04-13T03:47:48.246Z,0.00
2019-04-13T03:48:48.219Z,0.00
2019-04-13T03:49:48.190Z,0.00
2019-04-13T03:50:48.171Z,0.00
2019-04-13T03:51:48.138Z,0.00
2019-04-13T03:52:48.110Z,0.00
2019-04-13T03:53:48.083Z,0.00
2019-04-13T03:54:48.059Z,0.00
2019-04-13T03:55:48.028Z,0.00
2019-04-13T03:56:48.000Z,0.00
2019-04-13T03:57:47.975Z,0.00
2019-04-13T03:58:47.946Z,0.00
2019-04-13T03:59:47.918Z,0.00
2019-04-13T04:00:47.892Z,0.00
2019-04-13T04:01:47.867Z,0.00
2019-04-13T04:02:47.837Z,0.00
2019-04-13T04:03:47.815Z,0.00
2019-04-13T04:04:47.782Z,0.00
2019-04-13T04:05:47.755Z,0.00
2019-04-13T04:06:47.738Z,0.00
2019-04-13T04:07:47.703Z,0.00
2019-04-13T04:08:47.675Z,0.00
2019-04-13T04:09:47.650Z,0.00
2019-04-13T04:10:47.624Z,0.00
2019-04-13T04:11:47.590Z,0.00
2019-04-13T04:12:47.565Z,0.00
2019-04-13T04:13:47.542Z,0.00
2019-04-13T04:14:47.512Z,0.00
2019-04-13T04:15:47.523Z,0.00
2019-04-13T04:16:47.452Z,0.00
2019-04-13T04:17:47.426Z,0.00
2019-04-13T04:18:47.400Z,0.00
2019-04-13T04:19:47.372Z,0.00
2019-04-13T04:20:47.346Z,0.00
2019-04-13T04:21:47.330Z,0.00
2019-04-13T04:22:47.305Z,0.00
2019-04-13T04:23:47.261Z,0.00
2019-04-13T04:24:47.234Z,0.00
2019-04-13T04:25:47.204Z,0.00
2019-04-13T04:26:47.179Z,0.00
2019-04-13T04:27:47.154Z,0.00
2019-04-13T04:28:47.123Z,4.00
2019-04-13T04:29:47.096Z,4.00
2019-04-13T04:30:47.069Z,0.00
2019-04-13T04:31:47.044Z,0.00
2019-04-13T04:32:47.014Z,0.00
2019-04-13T04:33:46.991Z,4.00
2019-04-13T04:34:46.960Z,4.00
2019-04-13T04:35:46.931Z,4.00
2019-04-13T04:36:46.909Z,0.00
2019-04-13T04:37:46.885Z,4.00
2019-04-13T04:38:46.849Z,4.00
2019-04-13T04:39:46.824Z,4.00
2019-04-13T04:40:46.798Z,4.00
2019-04-13T04:41:46.768Z,4.00
2019-04-13T04:42:46.740Z,8.00
2019-04-13T04:43:46.718Z,8.00
2019-04-13T04:44:46.686Z,4.00
2019-04-13T04:45:46.658Z,8.00
2019-04-13T04:46:46.631Z,8.00
2019-04-13T04:47:46.603Z,8.00
2019-04-13T04:48:46.578Z,12.00
2019-04-13T04:49:46.548Z,8.00
2019-04-13T04:50:46.518Z,12.00
2019-04-13T04:51:46.782Z,12.00
2019-04-13T04:52:46.465Z,12.00
2019-04-13T04:53:46.436Z,12.00
2019-04-13T04:54:46.419Z,12.00
2019-04-13T04:55:46.383Z,12.00
2019-04-13T04:56:46.358Z,16.00
2019-04-13T04:57:46.336Z,16.00
2019-04-13T04:58:46.333Z,16.00
2019-04-13T04:59:46.279Z,20.00
2019-04-13T05:00:46.250Z,16.00
2019-04-13T05:01:46.218Z,20.00
2019-04-13T05:02:46.190Z,20.00
2019-04-13T05:03:46.167Z,24.00
2019-04-13T05:04:46.135Z,24.00
2019-04-13T05:05:46.110Z,24.00
2019-04-13T05:06:46.084Z,24.00
2019-04-13T05:07:46.054Z,24.00
2019-04-13T05:08:46.026Z,28.00
2019-04-13T05:09:46.005Z,28.00
2019-04-13T05:10:45.974Z,28.00
2019-04-13T05:11:45.947Z,28.00
2019-04-13T05:12:45.917Z,32.00
2019-04-13T05:13:45.887Z,28.00
2019-04-13T05:14:45.862Z,32.00
2019-04-13T05:15:45.835Z,36.00
2019-04-13T05:16:45.804Z,32.00
2019-04-13T05:17:45.780Z,36.00
2019-04-13T05:18:45.803Z,36.00
2019-04-13T05:19:45.723Z,36.00
2019-04-13T05:20:45.695Z,36.00
2019-04-13T05:21:45.671Z,36.00
2019-04-13T05:22:45.642Z,40.00
2019-04-13T05:23:45.614Z,40.00
2019-04-13T05:24:45.589Z,40.00
2019-04-13T05:25:45.559Z,40.00
2019-04-13T05:26:45.533Z,40.00
2019-04-13T05:27:45.504Z,44.00
2019-04-13T05:28:45.487Z,44.00
2019-04-13T05:29:45.454Z,48.00
2019-04-13T05:30:45.472Z,44.00
2019-04-13T05:31:45.396Z,44.00
2019-04-13T05:32:45.366Z,48.00
2019-04-13T05:33:45.344Z,48.00
2019-04-13T05:34:45.352Z,52.00
2019-04-13T05:35:45.298Z,48.00
2019-04-13T05:36:47.974Z,52.00
2019-04-13T05:37:45.229Z,52.00
2019-04-13T05:38:45.201Z,48.00
2019-04-13T05:39:45.196Z,52.00
2019-04-13T05:40:45.144Z,52.00
2019-04-13T05:41:45.117Z,52.00
2019-04-13T05:42:45.095Z,52.00
2019-04-13T05:43:45.063Z,52.00
2019-04-13T05:44:45.034Z,56.00
2019-04-13T05:45:45.009Z,56.00
2019-04-13T05:46:44.979Z,56.00
2019-04-13T05:47:44.952Z,60.00
2019-04-13T05:48:44.923Z,56.00
2019-04-13T05:49:44.904Z,56.00
2019-04-13T05:50:44.869Z,56.00
2019-04-13T05:51:44.842Z,56.00
2019-04-13T05:52:44.814Z,56.00
2019-04-13T05:53:44.786Z,56.00
2019-04-13T05:54:44.758Z,60.00
2019-04-13T05:55:44.738Z,60.00
2019-04-13T05:56:44.714Z,60.00
2019-04-13T05:57:44.685Z,60.00
2019-04-13T05:58:44.648Z,60.00
2019-04-13T05:59:44.626Z,64.00
2019-04-13T06:00:44.598Z,60.00
2019-04-13T06:01:44.567Z,60.00
2019-04-13T06:02:44.539Z,52.00
2019-04-13T06:03:44.512Z,52.00
2019-04-13T06:04:44.484Z,48.00
2019-04-13T06:05:44.460Z,60.00
2019-04-13T06:06:44.432Z,64.00
2019-04-13T06:07:44.413Z,68.00
2019-04-13T06:08:44.376Z,80.00
2019-04-13T06:09:44.352Z,88.00
2019-04-13T06:10:44.322Z,92.00
2019-04-13T06:11:45.636Z,96.00
2019-04-13T06:12:44.269Z,96.00
2019-04-13T06:13:44.237Z,100.00
2019-04-13T06:14:44.217Z,96.00
2019-04-13T06:15:44.185Z,96.00
2019-04-13T06:16:44.161Z,92.00
2019-04-13T06:17:44.165Z,96.00
2019-04-13T06:18:44.106Z,100.00
2019-04-13T06:19:44.077Z,100.00
2019-04-13T06:20:44.048Z,108.00
2019-04-13T06:21:44.838Z,112.00
2019-04-13T06:22:46.842Z,112.00
2019-04-13T06:23:43.968Z,120.00
2019-04-13T06:24:43.941Z,108.00
2019-04-13T06:25:45.613Z,112.00
2019-04-13T06:26:43.885Z,104.00
2019-04-13T06:27:43.861Z,100.00
2019-04-13T06:28:47.521Z,88.00
2019-04-13T06:29:43.804Z,84.00
2019-04-13T06:30:46.098Z,96.00
2019-04-13T06:31:43.752Z,92.00
2019-04-13T06:32:43.724Z,84.00
2019-04-13T06:33:43.701Z,100.00
2019-04-13T06:34:43.684Z,120.00
2019-04-13T06:35:43.647Z,124.00
2019-04-13T06:36:43.678Z,116.00
2019-04-13T06:37:43.590Z,108.00
2019-04-13T06:38:43.567Z,116.00
2019-04-13T06:39:43.538Z,116.00
2019-04-13T06:40:43.509Z,116.00
2019-04-13T06:41:43.996Z,112.00
2019-04-13T06:42:43.455Z,104.00
2019-04-13T06:43:43.431Z,108.00
2019-04-13T06:44:43.409Z,112.00
2019-04-13T06:45:43.378Z,120.00
2019-04-13T06:46:43.348Z,136.00
2019-04-13T06:47:43.327Z,164.00
2019-04-13T06:48:43.297Z,176.00
2019-04-13T06:49:43.290Z,168.00
2019-04-13T06:50:43.242Z,180.00
2019-04-13T06:51:43.228Z,192.00
2019-04-13T06:52:45.184Z,180.00
2019-04-13T06:53:43.166Z,208.00
2019-04-13T06:54:43.818Z,220.00
2019-04-13T06:55:43.110Z,220.00
2019-04-13T06:56:43.082Z,212.00
2019-04-13T06:57:43.057Z,220.00
2019-04-13T06:58:43.036Z,184.00
2019-04-13T06:59:43.011Z,172.00
2019-04-13T07:00:44.915Z,160.00
2019-04-13T07:01:42.953Z,156.00
2019-04-13T07:02:42.926Z,148.00
2019-04-13T07:03:42.905Z,140.00
2019-04-13T07:04:42.878Z,128.00
2019-04-13T07:05:42.847Z,124.00
2019-04-13T07:06:48.163Z,124.00
2019-04-13T07:07:45.895Z,120.00
2019-04-13T07:08:42.766Z,116.00
2019-04-13T07:09:42.741Z,124.00
2019-04-13T07:10:44.850Z,108.00
2019-04-13T07:11:42.777Z,108.00
2019-04-13T07:12:42.662Z,132.00
2019-04-13T07:13:42.639Z,116.00
2019-04-13T07:14:42.610Z,108.00
2019-04-13T07:15:46.408Z,104.00
2019-04-13T07:16:44.141Z,96.00
2019-04-13T07:17:42.534Z,104.00
2019-04-13T07:18:42.510Z,96.00
2019-04-13T07:19:42.479Z,116.00
2019-04-13T07:20:42.450Z,120.00
2019-04-13T07:21:42.452Z,136.00
2019-04-13T07:22:42.405Z,156.00
2019-04-13T07:23:42.425Z,176.00
2019-04-13T07:24:42.345Z,204.00
2019-04-13T07:25:42.324Z,216.00
2019-04-13T07:26:42.310Z,232.00
2019-04-13T07:27:42.269Z,240.00
2019-04-13T07:28:42.243Z,264.00
2019-04-13T07:29:42.216Z,280.00
2019-04-13T07:30:42.190Z,284.00
2019-04-13T07:31:42.164Z,284.00
2019-04-13T07:32:42.142Z,292.00
2019-04-13T07:33:42.116Z,304.00
2019-04-13T07:34:42.168Z,308.00
2019-04-13T07:35:42.061Z,296.00
2019-04-13T07:36:42.393Z,308.00
2019-04-13T07:37:44.706Z,308.00
2019-04-13T07:38:46.806Z,312.00
2019-04-13T07:39:41.963Z,288.00
2019-04-13T07:40:41.932Z,296.00
2019-04-13T07:41:41.911Z,256.00
2019-04-13T07:42:41.880Z,232.00
2019-04-13T07:43:45.729Z,244.00
2019-04-13T07:44:41.829Z,244.00
2019-04-13T07:45:41.805Z,276.00
2019-04-13T07:46:41.777Z,320.00
2019-04-13T07:47:41.756Z,268.00
2019-04-13T07:48:41.733Z,272.00
2019-04-13T07:49:41.699Z,284.00
2019-04-13T07:50:41.678Z,276.00
2019-04-13T07:51:41.648Z,260.00
2019-04-13T07:52:41.656Z,316.00
2019-04-13T07:53:41.598Z,340.00
2019-04-13T07:54:45.186Z,344.00
2019-04-13T07:55:41.549Z,352.00
2019-04-13T07:56:41.522Z,348.00
2019-04-13T07:57:41.496Z,360.00
2019-04-13T07:58:41.472Z,336.00
2019-04-13T07:59:41.505Z,360.00
2019-04-13T08:00:41.520Z,304.00
2019-04-13T08:01:41.394Z,308.00
2019-04-13T08:02:41.405Z,344.00
2019-04-13T08:03:41.355Z,316.00
2019-04-13T08:04:41.327Z,300.00
2019-04-13T08:05:41.295Z,264.00
2019-04-13T08:06:41.271Z,264.00
2019-04-13T08:07:49.686Z,248.00
2019-04-13T08:08:45.404Z,304.00
2019-04-13T08:09:41.195Z,272.00
2019-04-13T08:10:41.166Z,308.00
2019-04-13T08:11:41.242Z,288.00
2019-04-13T08:12:41.115Z,268.00
2019-04-13T08:13:41.106Z,280.00
2019-04-13T08:14:41.069Z,252.00
2019-04-13T08:15:41.042Z,244.00
2019-04-13T08:16:41.012Z,188.00
2019-04-13T08:17:40.985Z,168.00
2019-04-13T08:18:42.121Z,216.00
2019-04-13T08:19:40.939Z,244.00
2019-04-13T08:20:40.910Z,356.00
2019-04-13T08:21:40.886Z,324.00
2019-04-13T08:22:40.876Z,332.00
2019-04-13T08:23:40.835Z,332.00
2019-04-13T08:24:40.809Z,352.00
2019-04-13T08:25:40.784Z,336.00
2019-04-13T08:26:40.760Z,336.00
2019-04-13T08:27:40.768Z,336.00
2019-04-13T08:28:40.707Z,360.00
2019-04-13T08:29:44.578Z,360.00
2019-04-13T08:30:40.666Z,272.00
2019-04-13T08:31:40.634Z,224.00
2019-04-13T08:32:40.608Z,300.00
2019-04-13T08:33:40.601Z,256.00
2019-04-13T08:34:40.557Z,260.00
2019-04-13T08:35:42.654Z,252.00
2019-04-13T08:36:40.504Z,232.00
2019-04-13T08:37:52.903Z,272.00
2019-04-13T08:38:40.456Z,300.00
2019-04-13T08:39:40.449Z,300.00
2019-04-13T08:40:40.409Z,316.00
2019-04-13T08:41:40.381Z,340.00
2019-04-13T08:42:40.356Z,360.00
2019-04-13T08:43:40.381Z,360.00
2019-04-13T08:44:40.305Z,332.00
2019-04-13T08:45:43.899Z,356.00
2019-04-13T08:46:40.271Z,396.00
2019-04-13T08:47:40.269Z,388.00
2019-04-13T08:48:40.279Z,364.00
2019-04-13T08:49:40.238Z,324.00
2019-04-13T08:50:40.154Z,324.00
2019-04-13T08:51:40.136Z,324.00
2019-04-13T08:52:40.103Z,360.00
2019-04-13T08:53:40.077Z,436.00
2019-04-13T08:54:40.054Z,396.00
2019-04-13T08:55:40.317Z,332.00
2019-04-13T08:56:40.005Z,344.00
2019-04-13T08:57:39.977Z,368.00
2019-04-13T08:58:41.183Z,368.00
2019-04-13T08:59:39.927Z,256.00
2019-04-13T09:00:39.906Z,232.00
2019-04-13T09:01:39.877Z,288.00
2019-04-13T09:02:39.860Z,296.00
2019-04-13T09:03:39.836Z,304.00
2019-04-13T09:04:39.807Z,208.00
2019-04-13T09:05:39.787Z,248.00
2019-04-13T09:06:39.755Z,240.00
2019-04-13T09:07:39.950Z,216.00
2019-04-13T09:08:39.706Z,208.00
2019-04-13T09:09:41.343Z,232.00
2019-04-13T09:10:39.679Z,288.00
2019-04-13T09:11:40.824Z,232.00
2019-04-13T09:12:40.894Z,180.00
2019-04-13T09:13:39.893Z,152.00
2019-04-13T09:14:40.411Z,140.00
2019-04-13T09:15:42.500Z,168.00
2019-04-13T09:16:39.580Z,180.00
2019-04-13T09:17:39.830Z,216.00
2019-04-13T09:18:40.004Z,236.00
2019-04-13T09:19:42.351Z,444.00
2019-04-13T09:20:39.948Z,468.00
2019-04-13T09:21:41.963Z,460.00
2019-04-13T09:22:39.876Z,404.00
2019-04-13T09:23:44.222Z,324.00
2019-04-13T09:24:39.308Z,280.00
2019-04-13T09:25:39.284Z,284.00
2019-04-13T09:26:39.342Z,252.00
2019-04-13T09:27:40.882Z,212.00
2019-04-13T09:28:43.101Z,224.00
2019-04-13T09:29:39.349Z,296.00
2019-04-13T09:30:39.220Z,356.00
2019-04-13T09:31:39.176Z,348.00
2019-04-13T09:32:39.249Z,320.00
2019-04-13T09:33:39.230Z,280.00
2019-04-13T09:34:39.062Z,236.00
2019-04-13T09:35:39.060Z,268.00
2019-04-13T09:36:39.033Z,324.00
2019-04-13T09:37:39.085Z,276.00
2019-04-13T09:38:42.643Z,248.00
2019-04-13T09:39:39.071Z,204.00
2019-04-13T09:40:39.021Z,196.00
2019-04-13T09:41:38.929Z,188.00
2019-04-13T09:42:39.193Z,168.00
2019-04-13T09:43:39.128Z,196.00
2019-04-13T09:44:39.146Z,316.00
2019-04-13T09:45:38.802Z,380.00
2019-04-13T09:46:38.801Z,392.00
2019-04-13T09:47:41.987Z,376.00
2019-04-13T09:48:38.717Z,340.00
2019-04-13T09:49:38.703Z,328.00
2019-04-13T09:50:38.939Z,324.00
2019-04-13T09:51:39.946Z,356.00
2019-04-13T09:52:38.618Z,428.00
2019-04-13T09:53:38.595Z,396.00
2019-04-13T09:54:40.810Z,400.00
2019-04-13T09:55:38.550Z,440.00
2019-04-13T09:56:38.521Z,472.00
2019-04-13T09:57:38.498Z,624.00
2019-04-13T09:58:38.472Z,564.00
2019-04-13T09:59:38.450Z,516.00
2019-04-13T10:00:38.422Z,576.00
2019-04-13T10:01:38.498Z,540.00
2019-04-13T10:02:38.586Z,1052.00
2019-04-13T10:03:39.485Z,1096.00
2019-04-13T10:04:38.326Z,576.00
2019-04-13T10:05:38.303Z,1120.00
2019-04-13T10:06:39.603Z,1180.00
2019-04-13T10:07:41.251Z,1216.00
2019-04-13T10:08:38.230Z,1272.00
2019-04-13T10:09:39.590Z,1324.00
2019-04-13T10:10:38.182Z,1432.00
2019-04-13T10:11:38.219Z,1544.00
2019-04-13T10:12:38.135Z,1564.00
2019-04-13T10:13:38.112Z,1540.00
2019-04-13T10:14:38.093Z,1344.00
2019-04-13T10:15:38.068Z,576.00
2019-04-13T10:16:38.043Z,508.00
2019-04-13T10:17:38.019Z,704.00
2019-04-13T10:18:37.998Z,932.00
2019-04-13T10:19:40.020Z,688.00
2019-04-13T10:20:39.243Z,1340.00
2019-04-13T10:21:37.929Z,844.00
2019-04-13T10:22:37.905Z,1628.00
2019-04-13T10:23:37.882Z,636.00
2019-04-13T10:24:37.862Z,724.00
2019-04-13T10:25:38.449Z,624.00
2019-04-13T10:26:37.820Z,616.00
2019-04-13T10:27:37.792Z,520.00
2019-04-13T10:28:37.769Z,452.00
2019-04-13T10:29:37.796Z,436.00
2019-04-13T10:30:37.729Z,720.00
2019-04-13T10:31:37.704Z,1136.00
2019-04-13T10:32:37.681Z,664.00
2019-04-13T10:33:37.661Z,380.00
2019-04-13T10:34:37.638Z,420.00
2019-04-13T10:35:37.612Z,420.00
2019-04-13T10:36:37.591Z,496.00
2019-04-13T10:37:37.627Z,408.00
2019-04-13T10:38:37.551Z,312.00
2019-04-13T10:39:37.524Z,280.00
2019-04-13T10:40:37.566Z,304.00
2019-04-13T10:41:37.479Z,360.00
2019-04-13T10:42:37.460Z,420.00
2019-04-13T10:43:37.434Z,536.00
2019-04-13T10:44:41.817Z,568.00
2019-04-13T10:45:37.443Z,456.00
2019-04-13T10:46:37.370Z,360.00
2019-04-13T10:47:37.347Z,312.00
2019-04-13T10:48:37.329Z,244.00
2019-04-13T10:49:37.299Z,184.00
2019-04-13T10:50:37.296Z,140.00
2019-04-13T10:51:37.253Z,116.00
2019-04-13T10:52:37.232Z,116.00
2019-04-13T10:53:37.205Z,104.00
2019-04-13T10:54:37.194Z,80.00
2019-04-13T10:55:37.170Z,64.00
2019-04-13T10:56:37.138Z,52.00
2019-04-13T10:57:37.142Z,48.00
2019-04-13T10:58:37.093Z,60.00
2019-04-13T10:59:37.070Z,72.00
2019-04-13T11:00:37.044Z,80.00
2019-04-13T11:01:37.020Z,92.00
2019-04-13T11:02:37.046Z,104.00
2019-04-13T11:03:36.979Z,112.00
2019-04-13T11:04:36.955Z,120.00
2019-04-13T11:05:36.935Z,128.00
2019-04-13T11:06:36.929Z,132.00
2019-04-13T11:07:36.879Z,140.00
2019-04-13T11:08:36.858Z,148.00
2019-04-13T11:09:36.836Z,152.00
2019-04-13T11:10:36.917Z,160.00
2019-04-13T11:11:36.798Z,176.00
2019-04-13T11:12:36.764Z,184.00
2019-04-13T11:13:36.748Z,188.00
2019-04-13T11:14:36.738Z,196.00
2019-04-13T11:15:36.688Z,200.00
2019-04-13T11:16:36.814Z,216.00
2019-04-13T11:17:36.640Z,236.00
2019-04-13T11:18:37.567Z,256.00
2019-04-13T11:19:40.313Z,276.00
2019-04-13T11:20:36.566Z,316.00
2019-04-13T11:21:36.542Z,368.00
2019-04-13T11:22:36.520Z,452.00
2019-04-13T11:23:44.778Z,572.00
2019-04-13T11:24:36.481Z,816.00
2019-04-13T11:25:36.467Z,760.00
2019-04-13T11:26:36.420Z,452.00
2019-04-13T11:27:37.044Z,328.00
2019-04-13T11:28:36.788Z,236.00
2019-04-13T11:29:36.357Z,196.00
2019-04-13T11:30:36.348Z,176.00
2019-04-13T11:31:36.311Z,160.00
2019-04-13T11:32:36.278Z,148.00
2019-04-13T11:33:36.264Z,128.00
2019-04-13T11:34:36.251Z,124.00
2019-04-13T11:35:36.394Z,136.00
2019-04-13T11:36:36.177Z,160.00
2019-04-13T11:37:36.163Z,172.00
2019-04-13T11:38:36.131Z,200.00
2019-04-13T11:39:40.293Z,224.00
2019-04-13T11:40:36.082Z,244.00
2019-04-13T11:41:36.102Z,276.00
2019-04-13T11:42:43.810Z,312.00
2019-04-13T11:44:29.522Z,432.00
2019-04-13T11:45:29.465Z,452.00
2019-04-13T11:47:23.835Z,464.00
2019-04-13T11:48:23.782Z,556.00
2019-04-13T11:50:17.462Z,1160.00
2019-04-13T11:51:17.112Z,1212.00
2019-04-13T11:52:17.094Z,1000.00
2019-04-13T11:53:17.065Z,832.00
2019-04-13T11:54:17.041Z,1100.00
2019-04-13T11:55:17.042Z,1280.00
2019-04-13T11:56:17.001Z,3048.00
2019-04-13T11:57:16.973Z,2160.00
2019-04-13T11:58:16.949Z,3048.00
2019-04-13T11:59:16.921Z,3260.00
2019-04-13T12:00:16.935Z,3424.00
2019-04-13T12:01:16.929Z,3700.00
2019-04-13T12:02:16.856Z,3876.00
2019-04-13T12:03:16.834Z,4000.00
2019-04-13T12:04:16.816Z,3796.00
2019-04-13T12:05:16.793Z,3640.00
2019-04-13T12:06:16.774Z,3072.00
2019-04-13T12:07:16.761Z,2592.00
2019-04-13T12:08:16.732Z,3228.00
2019-04-13T12:09:16.718Z,4212.00
2019-04-13T12:10:16.719Z,3868.00
2019-04-13T12:11:19.118Z,3576.00
2019-04-13T12:12:16.657Z,4660.00
2019-04-13T12:13:16.648Z,5404.00
2019-04-13T12:14:16.627Z,5800.00
2019-04-13T12:15:16.657Z,5696.00
2019-04-13T12:16:17.228Z,5544.00
2019-04-13T12:17:16.588Z,5728.00
2019-04-13T12:18:16.572Z,5728.00
2019-04-13T12:19:16.545Z,6152.00
2019-04-13T12:20:16.531Z,5808.00
2019-04-13T12:21:16.526Z,5476.00
2019-04-13T12:22:16.505Z,5336.00
2019-04-13T12:23:16.493Z,2400.00
2019-04-13T12:24:16.477Z,888.00
2019-04-13T12:25:16.475Z,6348.00
2019-04-13T12:26:16.451Z,1828.00
2019-04-13T12:27:16.439Z,1260.00
2019-04-13T12:28:16.427Z,1112.00
2019-04-13T12:29:16.415Z,5472.00
2019-04-13T12:30:16.403Z,828.00
2019-04-13T12:31:19.009Z,732.00
2019-04-13T12:32:16.388Z,5112.00
2019-04-13T12:33:17.053Z,644.00
2019-04-13T12:34:16.356Z,704.00
2019-04-13T12:35:16.343Z,700.00
2019-04-13T12:36:16.324Z,1204.00
2019-04-13T12:37:16.312Z,788.00
2019-04-13T12:38:16.297Z,912.00
2019-04-13T12:39:16.282Z,1320.00
2019-04-13T12:40:16.267Z,3424.00
2019-04-13T12:41:17.893Z,820.00
2019-04-13T12:42:16.237Z,996.00
2019-04-13T12:43:16.222Z,2104.00
2019-04-13T12:44:16.206Z,4420.00
2019-04-13T12:45:16.190Z,2900.00
2019-04-13T12:46:16.177Z,976.00
2019-04-13T12:47:16.158Z,812.00
2019-04-13T12:48:18.587Z,1020.00
2019-04-13T12:49:16.128Z,4312.00
2019-04-13T12:50:16.112Z,1000.00